Time;durP1;ratioP1;P1;durP2;ratioP2;P2;SDS_P1;SDS_P2;PMS_P1;PMS_P2;Temp;Humidity;BMP_temperature;BMP_pressure;BME280_temperature;BME280_humidity;BME280_pressure;Samples;Min_cycle;Max_cycle;Signal;HPM_P1;HPM_P2
2023/12/28 00:02:18;;;;;;;5.45;3.90;;;;;;;;;;5065537;28;20046;-69
2023/12/28 00:04:44;;;;;;;7.65;4.50;;;;;;;;;;5063802;28;20036;-69
2023/12/28 00:07:09;;;;;;;5.40;3.78;;;;;;;;;;5065699;28;20470;-68
2023/12/28 00:09:35;;;;;;;6.88;4.03;;;;;;;;;;5049356;28;20029;-69
2023/12/28 00:12:00;;;;;;;6.28;4.28;;;;;;;;;;5065328;28;20068;-69
2023/12/28 00:14:25;;;;;;;5.85;3.95;;;;;;;;;;5048110;28;20446;-69
2023/12/28 00:16:51;;;;;;;5.07;3.83;;;;;;;;;;5065301;28;20418;-69
2023/12/28 00:19:16;;;;;;;5.57;4.07;;;;;;;;;;5053996;28;20598;-68
2023/12/28 00:21:41;;;;;;;6.13;4.13;;;;;;;;;;5065484;28;20503;-68
2023/12/28 00:24:07;;;;;;;5.82;4.07;;;;;;;;;;5063766;28;20048;-68
2023/12/28 00:26:32;;;;;;;6.50;4.53;;;;;;;;;;5056623;28;20071;-69
2023/12/28 00:28:57;;;;;;;5.53;3.97;;;;;;;;;;5058329;28;20036;-69
2023/12/28 00:31:23;;;;;;;5.43;3.70;;;;;;;;;;5064351;28;20063;-69
2023/12/28 00:33:50;;;;;;;5.63;4.20;;;;;;;;;;5058304;28;20840;-69
2023/12/28 00:36:18;;;;;;;5.45;4.03;;;;;;;;;;5067522;28;20049;-69
2023/12/28 00:38:43;;;;;;;7.38;4.20;;;;;;;;;;5066968;28;20465;-71
2023/12/28 00:41:09;;;;;;;6.50;4.28;;;;;;;;;;5062096;28;20036;-69
2023/12/28 00:43:34;;;;;;;6.25;4.60;;;;;;;;;;5049761;28;20047;-69
2023/12/28 00:45:59;;;;;;;6.90;4.20;;;;;;;;;;5063805;28;20450;-69
2023/12/28 00:48:24;;;;;;;6.63;4.43;;;;;;;;;;5049512;28;20118;-69
2023/12/28 00:50:50;;;;;;;6.30;4.20;;;;;;;;;;5061301;28;20149;-69
2023/12/28 00:53:15;;;;;;;6.20;4.45;;;;;;;;;;5060818;28;20060;-69
2023/12/28 00:55:41;;;;;;;6.88;4.28;;;;;;;;;;5043038;28;20052;-69
2023/12/28 00:58:06;;;;;;;6.40;4.50;;;;;;;;;;5054011;28;20418;-69
2023/12/28 01:00:31;;;;;;;6.68;4.20;;;;;;;;;;5053401;28;20411;-69
2023/12/28 01:02:56;;;;;;;6.90;4.50;;;;;;;;;;5058472;28;20037;-69
2023/12/28 01:05:22;;;;;;;5.63;4.03;;;;;;;;;;5049524;28;20610;-69
2023/12/28 01:07:47;;;;;;;5.72;4.13;;;;;;;;;;5059626;28;20037;-70
2023/12/28 01:10:13;;;;;;;6.53;4.32;;;;;;;;;;5057576;28;20039;-68
2023/12/28 01:12:38;;;;;;;6.47;4.43;;;;;;;;;;5058355;28;20040;-69
2023/12/28 01:15:03;;;;;;;6.85;4.72;;;;;;;;;;5062906;28;20035;-69
2023/12/28 01:17:29;;;;;;;5.57;4.22;;;;;;;;;;5060881;28;20123;-69
2023/12/28 01:19:54;;;;;;;6.20;4.03;;;;;;;;;;5049690;28;20079;-69
2023/12/28 01:22:19;;;;;;;6.22;4.55;;;;;;;;;;5054866;28;20730;-72
2023/12/28 01:24:49;;;;;;;6.95;4.15;;;;;;;;;;5063727;28;20081;-69
2023/12/28 01:27:14;;;;;;;6.22;4.18;;;;;;;;;;5060751;28;20037;-69
2023/12/28 01:29:40;;;;;;;6.18;4.60;;;;;;;;;;5065264;28;20094;-69
2023/12/28 01:32:05;;;;;;;5.40;4.07;;;;;;;;;;5063151;28;20041;-68
2023/12/28 01:34:30;;;;;;;6.40;4.65;;;;;;;;;;5053084;28;20029;-68
2023/12/28 01:36:56;;;;;;;6.38;4.80;;;;;;;;;;5054665;28;20055;-69
2023/12/28 01:39:21;;;;;;;6.28;4.28;;;;;;;;;;5063855;28;20036;-67
2023/12/28 01:41:46;;;;;;;5.60;4.13;;;;;;;;;;5051011;28;20055;-67
2023/12/28 01:44:12;;;;;;;5.95;4.20;;;;;;;;;;5063155;28;20104;-68
2023/12/28 01:46:37;;;;;;;6.70;4.55;;;;;;;;;;5059204;28;20783;-68
2023/12/28 01:49:03;;;;;;;6.03;4.15;;;;;;;;;;5048902;28;20049;-69
2023/12/28 01:51:28;;;;;;;5.85;4.60;;;;;;;;;;5065896;28;20499;-70
2023/12/28 01:53:53;;;;;;;6.07;4.43;;;;;;;;;;5049038;28;20044;-69
2023/12/28 01:56:19;;;;;;;7.32;5.18;;;;;;;;;;5050065;28;20033;-68
2023/12/28 01:58:44;;;;;;;5.75;4.05;;;;;;;;;;5062468;28;20036;-69
2023/12/28 02:01:10;;;;;;;6.28;4.40;;;;;;;;;;5053505;28;20045;-69
2023/12/28 02:03:35;;;;;;;6.18;4.70;;;;;;;;;;5048490;28;20045;-69
2023/12/28 02:06:01;;;;;;;6.20;4.70;;;;;;;;;;5058769;28;20060;-69
2023/12/28 02:08:26;;;;;;;6.45;4.35;;;;;;;;;;5037301;28;20095;-69
2023/12/28 02:10:51;;;;;;;7.13;4.32;;;;;;;;;;5059482;28;20188;-69
2023/12/28 02:13:16;;;;;;;5.95;4.57;;;;;;;;;;5029618;28;20117;-69
2023/12/28 02:15:42;;;;;;;6.28;4.05;;;;;;;;;;5059682;28;20033;-69
2023/12/28 02:18:07;;;;;;;5.85;4.32;;;;;;;;;;5062215;28;20110;-69
2023/12/28 02:20:32;;;;;;;5.30;4.33;;;;;;;;;;5056423;28;20444;-69
2023/12/28 02:22:58;;;;;;;6.43;4.00;;;;;;;;;;5058338;28;20294;-69
2023/12/28 02:25:23;;;;;;;6.18;4.30;;;;;;;;;;5063534;28;20059;-69
2023/12/28 02:27:49;;;;;;;7.80;4.45;;;;;;;;;;5064193;28;20378;-69
2023/12/28 02:30:15;;;;;;;6.72;4.60;;;;;;;;;;5065040;28;20109;-69
2023/12/28 02:32:56;;;;;;;6.25;4.53;;;;;;;;;;5051367;28;20124;-69
2023/12/28 02:35:27;;;;;;;6.07;4.55;;;;;;;;;;5066872;28;20040;-69
2023/12/28 02:37:53;;;;;;;6.13;4.05;;;;;;;;;;5051085;28;20037;-69
2023/12/28 02:40:18;;;;;;;6.25;4.20;;;;;;;;;;5051979;28;20037;-69
2023/12/28 02:42:44;;;;;;;5.95;4.55;;;;;;;;;;5051617;28;20032;-70
2023/12/28 02:45:09;;;;;;;5.53;4.20;;;;;;;;;;5051489;28;20502;-69
2023/12/28 02:47:35;;;;;;;6.80;4.60;;;;;;;;;;5048140;28;20033;-69
2023/12/28 02:50:00;;;;;;;7.35;4.85;;;;;;;;;;5069967;28;20174;-69
2023/12/28 02:52:25;;;;;;;5.97;4.20;;;;;;;;;;5052135;28;20039;-69
2023/12/28 02:54:51;;;;;;;6.00;4.22;;;;;;;;;;5044922;28;20171;-69
2023/12/28 02:57:18;;;;;;;6.03;4.70;;;;;;;;;;5065372;28;20028;-68
2023/12/28 02:59:46;;;;;;;6.90;4.43;;;;;;;;;;5067719;28;20696;-69
2023/12/28 03:02:11;;;;;;;5.85;4.32;;;;;;;;;;5065670;28;20112;-69
2023/12/28 03:04:37;;;;;;;6.30;4.45;;;;;;;;;;5069419;28;20247;-68
2023/12/28 03:07:02;;;;;;;6.65;4.78;;;;;;;;;;5064687;28;20077;-69
2023/12/28 03:09:27;;;;;;;6.85;4.78;;;;;;;;;;5050981;28;20029;-69
2023/12/28 03:11:53;;;;;;;6.30;4.65;;;;;;;;;;5064769;28;20036;-68
2023/12/28 03:14:18;;;;;;;7.13;4.45;;;;;;;;;;5069168;28;20052;-69
2023/12/28 03:16:43;;;;;;;5.75;4.28;;;;;;;;;;5069535;28;20090;-69
2023/12/28 03:19:09;;;;;;;5.30;4.35;;;;;;;;;;5052115;28;20047;-69
2023/12/28 03:21:38;;;;;;;6.38;4.75;;;;;;;;;;5051446;28;20060;-69
2023/12/28 03:24:03;;;;;;;6.83;4.60;;;;;;;;;;5069268;28;20143;-69
2023/12/28 03:26:29;;;;;;;5.80;4.30;;;;;;;;;;5060163;28;20285;-69
2023/12/28 03:28:54;;;;;;;6.80;4.55;;;;;;;;;;5065675;28;20465;-69
2023/12/28 03:31:19;;;;;;;6.88;4.50;;;;;;;;;;5063567;28;20487;-68
2023/12/28 03:33:45;;;;;;;7.05;4.95;;;;;;;;;;5051123;28;20098;-69
2023/12/28 03:36:17;;;;;;;6.43;4.97;;;;;;;;;;5062125;28;20029;-69
2023/12/28 03:38:42;;;;;;;7.68;5.22;;;;;;;;;;5058299;28;20031;-69
2023/12/28 03:41:15;;;;;;;5.68;4.10;;;;;;;;;;5055373;28;20043;-69
2023/12/28 03:43:41;;;;;;;7.07;4.63;;;;;;;;;;5049506;28;20029;-69
2023/12/28 03:46:06;;;;;;;6.38;4.57;;;;;;;;;;5065652;28;20119;-69
2023/12/28 03:48:31;;;;;;;6.65;4.57;;;;;;;;;;5051534;28;20063;-68
2023/12/28 03:50:56;;;;;;;6.45;4.57;;;;;;;;;;5059122;28;20780;-69
2023/12/28 03:53:22;;;;;;;5.40;4.43;;;;;;;;;;5045816;28;20099;-68
2023/12/28 03:55:47;;;;;;;6.50;4.60;;;;;;;;;;5039651;28;20037;-69
2023/12/28 03:58:12;;;;;;;6.25;4.47;;;;;;;;;;5067577;28;20040;-69
2023/12/28 04:00:38;;;;;;;7.40;4.70;;;;;;;;;;5068841;28;20581;-69
2023/12/28 04:03:03;;;;;;;7.20;5.05;;;;;;;;;;5059750;28;20032;-69
2023/12/28 04:05:28;;;;;;;6.53;4.43;;;;;;;;;;5049948;28;20037;-69
2023/12/28 04:07:54;;;;;;;7.13;4.82;;;;;;;;;;5062295;28;20021;-69
2023/12/28 04:10:28;;;;;;;7.03;4.80;;;;;;;;;;5048977;28;20075;-69
2023/12/28 04:12:57;;;;;;;7.95;4.90;;;;;;;;;;5053907;28;20052;-69
2023/12/28 04:15:22;;;;;;;7.07;4.38;;;;;;;;;;5067038;28;20013;-69
2023/12/28 04:17:48;;;;;;;5.72;4.22;;;;;;;;;;5058183;28;20127;-69
2023/12/28 04:20:13;;;;;;;6.05;4.30;;;;;;;;;;5067390;28;20097;-69
2023/12/28 04:22:38;;;;;;;5.82;4.50;;;;;;;;;;5068273;28;20516;-69
2023/12/28 04:25:04;;;;;;;6.20;4.70;;;;;;;;;;5061124;28;20538;-69
2023/12/28 04:27:29;;;;;;;6.30;5.07;;;;;;;;;;5063177;28;20071;-68
2023/12/28 04:29:54;;;;;;;7.20;4.80;;;;;;;;;;5068139;28;20137;-69
2023/12/28 04:32:20;;;;;;;6.68;4.90;;;;;;;;;;5068103;28;20079;-69
2023/12/28 04:34:45;;;;;;;6.78;4.68;;;;;;;;;;5061053;28;20015;-69
2023/12/28 04:37:10;;;;;;;7.68;4.95;;;;;;;;;;5058797;28;20032;-69
2023/12/28 04:39:37;;;;;;;6.38;4.50;;;;;;;;;;5051072;28;20103;-69
2023/12/28 04:42:02;;;;;;;6.30;4.70;;;;;;;;;;5048613;28;20102;-69
2023/12/28 04:44:28;;;;;;;7.30;5.05;;;;;;;;;;5060652;28;20537;-69
2023/12/28 04:46:53;;;;;;;7.28;4.45;;;;;;;;;;5067336;28;20035;-69
2023/12/28 04:49:18;;;;;;;6.10;4.65;;;;;;;;;;5068333;28;20518;-69
2023/12/28 04:51:44;;;;;;;8.32;5.03;;;;;;;;;;5062677;28;20028;-69
2023/12/28 04:54:09;;;;;;;6.70;4.38;;;;;;;;;;5066421;28;20086;-68
2023/12/28 04:56:34;;;;;;;7.95;4.93;;;;;;;;;;5066691;28;20029;-68
2023/12/28 04:58:59;;;;;;;5.93;4.60;;;;;;;;;;5059912;28;20182;-69
2023/12/28 05:01:25;;;;;;;6.85;4.72;;;;;;;;;;5067218;28;20033;-68
2023/12/28 05:03:50;;;;;;;7.38;4.93;;;;;;;;;;5060202;28;20025;-69
2023/12/28 05:06:16;;;;;;;6.53;4.90;;;;;;;;;;5060961;28;20063;-69
2023/12/28 05:08:41;;;;;;;7.40;5.20;;;;;;;;;;5041563;28;20025;-71
2023/12/28 05:11:07;;;;;;;6.95;4.95;;;;;;;;;;5047357;28;20036;-68
2023/12/28 05:13:34;;;;;;;5.72;4.40;;;;;;;;;;5058602;28;20473;-69
2023/12/28 05:15:59;;;;;;;7.13;4.78;;;;;;;;;;5060477;28;20555;-70
2023/12/28 05:18:24;;;;;;;7.35;5.28;;;;;;;;;;5053013;28;20111;-69
2023/12/28 05:20:50;;;;;;;6.70;4.88;;;;;;;;;;5067860;28;20097;-69
2023/12/28 05:23:15;;;;;;;7.40;5.25;;;;;;;;;;5060185;28;20048;-69
2023/12/28 05:25:40;;;;;;;6.53;4.60;;;;;;;;;;5061005;28;20040;-69
2023/12/28 05:28:05;;;;;;;7.32;4.75;;;;;;;;;;5050082;28;24791;-70
2023/12/28 05:30:31;;;;;;;6.53;4.75;;;;;;;;;;5064481;28;20044;-69
2023/12/28 05:32:56;;;;;;;6.75;5.00;;;;;;;;;;5062293;28;20041;-69
2023/12/28 05:35:21;;;;;;;7.47;5.05;;;;;;;;;;5067289;28;20040;-69
2023/12/28 05:37:47;;;;;;;8.40;5.03;;;;;;;;;;5064604;28;20052;-70
2023/12/28 05:40:12;;;;;;;6.18;4.28;;;;;;;;;;5055240;28;20043;-70
2023/12/28 05:42:37;;;;;;;8.25;5.55;;;;;;;;;;5066763;28;20032;-70
2023/12/28 05:45:03;;;;;;;6.97;5.13;;;;;;;;;;5061604;28;20879;-69
2023/12/28 05:47:28;;;;;;;6.85;5.03;;;;;;;;;;5056441;28;20040;-70
2023/12/28 05:49:53;;;;;;;7.55;5.20;;;;;;;;;;5060252;28;20450;-69
2023/12/28 05:52:19;;;;;;;7.60;5.28;;;;;;;;;;5048923;28;20040;-69
2023/12/28 05:54:44;;;;;;;6.20;4.93;;;;;;;;;;5065554;28;20052;-70
2023/12/28 05:57:10;;;;;;;7.25;4.55;;;;;;;;;;5065322;28;20039;-71
2023/12/28 05:59:39;;;;;;;7.53;4.65;;;;;;;;;;5067142;28;20040;-71
2023/12/28 06:02:05;;;;;;;6.88;4.93;;;;;;;;;;5046710;28;20542;-70
2023/12/28 06:04:30;;;;;;;7.20;4.93;;;;;;;;;;5058760;28;20052;-70
2023/12/28 06:06:55;;;;;;;9.43;5.55;;;;;;;;;;5064746;28;20040;-70
2023/12/28 06:09:20;;;;;;;11.10;5.53;;;;;;;;;;5064035;28;20043;-69
2023/12/28 06:11:46;;;;;;;10.93;4.65;;;;;;;;;;5066028;28;20083;-70
2023/12/28 06:14:11;;;;;;;8.10;5.00;;;;;;;;;;5068602;28;20486;-72
2023/12/28 06:16:36;;;;;;;11.73;5.38;;;;;;;;;;5073082;28;20028;-71
2023/12/28 06:19:02;;;;;;;10.73;5.35;;;;;;;;;;5062890;28;20086;-70
2023/12/28 06:21:29;;;;;;;12.10;5.00;;;;;;;;;;5067946;28;20529;-70
2023/12/28 06:23:55;;;;;;;13.68;5.32;;;;;;;;;;5070975;28;20052;-74
2023/12/28 06:26:20;;;;;;;12.60;5.70;;;;;;;;;;5070051;28;20459;-75
2023/12/28 06:28:46;;;;;;;12.05;5.80;;;;;;;;;;5072055;28;20040;-75
2023/12/28 06:31:11;;;;;;;11.77;5.35;;;;;;;;;;5052109;28;20060;-74
2023/12/28 06:33:36;;;;;;;12.30;4.95;;;;;;;;;;5069138;28;20035;-74
2023/12/28 06:36:05;;;;;;;15.45;5.75;;;;;;;;;;5034998;28;20049;-75
2023/12/28 06:38:31;;;;;;;15.35;5.57;;;;;;;;;;5065735;28;20075;-75
2023/12/28 06:40:57;;;;;;;14.88;6.05;;;;;;;;;;5071935;28;20511;-74
2023/12/28 06:43:22;;;;;;;13.10;5.43;;;;;;;;;;5066783;28;20029;-75
2023/12/28 06:45:47;;;;;;;10.60;5.57;;;;;;;;;;5048322;28;20041;-74
2023/12/28 06:48:12;;;;;;;11.32;5.63;;;;;;;;;;5046745;28;20132;-72
2023/12/28 06:50:38;;;;;;;11.48;5.35;;;;;;;;;;5049029;28;20493;-71
2023/12/28 06:53:03;;;;;;;11.70;5.45;;;;;;;;;;5063846;28;20064;-70
2023/12/28 06:55:29;;;;;;;12.75;6.00;;;;;;;;;;5060490;28;20041;-70
2023/12/28 06:57:54;;;;;;;18.35;5.97;;;;;;;;;;5064332;28;20033;-70
2023/12/28 07:00:19;;;;;;;19.52;6.75;;;;;;;;;;5062830;28;20115;-70
2023/12/28 07:02:45;;;;;;;10.23;5.63;;;;;;;;;;5060898;28;20128;-70
2023/12/28 07:05:12;;;;;;;11.65;6.10;;;;;;;;;;5062596;28;20039;-70
2023/12/28 07:07:37;;;;;;;12.98;6.32;;;;;;;;;;5063450;28;20773;-70
2023/12/28 07:10:03;;;;;;;19.38;6.63;;;;;;;;;;5064908;28;20028;-71
2023/12/28 07:12:28;;;;;;;15.63;6.32;;;;;;;;;;5060947;28;20125;-71
2023/12/28 07:14:53;;;;;;;13.35;5.95;;;;;;;;;;5065987;28;20029;-70
2023/12/28 07:17:19;;;;;;;15.40;5.97;;;;;;;;;;5067384;28;20048;-72
2023/12/28 07:19:44;;;;;;;11.75;6.22;;;;;;;;;;5060050;28;20036;-71
2023/12/28 07:22:09;;;;;;;11.73;5.97;;;;;;;;;;5067913;28;20036;-69
2023/12/28 07:24:35;;;;;;;11.73;6.07;;;;;;;;;;5069635;28;20029;-69
2023/12/28 07:27:01;;;;;;;14.93;6.57;;;;;;;;;;5067011;28;20044;-69
2023/12/28 07:29:27;;;;;;;10.13;5.72;;;;;;;;;;5063615;28;20559;-68
2023/12/28 07:31:53;;;;;;;10.45;5.95;;;;;;;;;;5065035;28;20060;-68
2023/12/28 07:34:18;;;;;;;11.18;5.15;;;;;;;;;;5041664;28;20036;-68
2023/12/28 07:36:44;;;;;;;11.52;5.45;;;;;;;;;;5064605;28;20063;-69
2023/12/28 07:39:09;;;;;;;11.27;5.75;;;;;;;;;;5064447;28;20029;-69
2023/12/28 07:41:34;;;;;;;12.13;6.13;;;;;;;;;;5068309;28;20036;-69
2023/12/28 07:44:00;;;;;;;11.68;6.13;;;;;;;;;;5065897;28;20511;-69
2023/12/28 07:46:25;;;;;;;12.10;5.53;;;;;;;;;;5062183;28;20037;-69
2023/12/28 07:48:50;;;;;;;10.30;5.70;;;;;;;;;;5042303;28;20041;-69
2023/12/28 07:51:16;;;;;;;12.65;5.93;;;;;;;;;;5069208;28;20117;-69
2023/12/28 07:53:41;;;;;;;13.38;5.60;;;;;;;;;;5061388;28;20404;-69
2023/12/28 07:56:06;;;;;;;12.18;5.72;;;;;;;;;;5061666;28;20116;-70
2023/12/28 07:58:32;;;;;;;11.80;5.80;;;;;;;;;;5055066;28;20137;-69
2023/12/28 08:00:57;;;;;;;11.25;5.53;;;;;;;;;;5067782;28;20063;-69
2023/12/28 08:03:22;;;;;;;12.30;6.18;;;;;;;;;;5065678;28;20036;-68
2023/12/28 08:05:47;;;;;;;11.65;5.93;;;;;;;;;;5053188;28;20036;-68
2023/12/28 08:08:13;;;;;;;15.93;6.28;;;;;;;;;;5054584;28;20091;-69
2023/12/28 08:10:38;;;;;;;8.82;5.18;;;;;;;;;;5059565;28;20219;-68
2023/12/28 08:13:03;;;;;;;12.65;5.95;;;;;;;;;;5044508;28;20037;-69
2023/12/28 08:15:29;;;;;;;11.73;5.97;;;;;;;;;;5049508;28;20047;-68
2023/12/28 08:17:54;;;;;;;10.88;6.03;;;;;;;;;;5050339;28;20090;-68
2023/12/28 08:20:19;;;;;;;11.85;5.90;;;;;;;;;;5063276;28;20036;-68
2023/12/28 08:22:45;;;;;;;10.93;5.78;;;;;;;;;;5049308;28;20530;-68
2023/12/28 08:25:11;;;;;;;8.98;5.57;;;;;;;;;;5047664;28;20115;-69
2023/12/28 08:27:36;;;;;;;11.43;5.32;;;;;;;;;;5049213;28;20082;-68
2023/12/28 08:30:02;;;;;;;9.82;5.63;;;;;;;;;;5033979;28;20119;-69
2023/12/28 08:32:27;;;;;;;8.05;5.38;;;;;;;;;;5049896;28;20072;-70
2023/12/28 08:34:53;;;;;;;10.90;5.22;;;;;;;;;;5054712;28;20043;-69
2023/12/28 08:37:18;;;;;;;10.13;5.45;;;;;;;;;;5049440;28;20586;-69
2023/12/28 08:39:43;;;;;;;11.15;6.15;;;;;;;;;;5063396;28;20368;-69
2023/12/28 08:42:08;;;;;;;9.68;5.45;;;;;;;;;;5065034;28;20052;-68
2023/12/28 08:44:36;;;;;;;7.85;5.32;;;;;;;;;;5060550;28;20029;-68
2023/12/28 08:47:02;;;;;;;9.32;5.50;;;;;;;;;;5050534;28;20040;-67
2023/12/28 08:49:27;;;;;;;8.93;5.22;;;;;;;;;;5033196;28;20052;-68
2023/12/28 08:51:53;;;;;;;7.72;4.93;;;;;;;;;;5066134;28;20480;-69
2023/12/28 08:54:18;;;;;;;9.35;5.22;;;;;;;;;;5049364;28;20490;-69
2023/12/28 08:56:43;;;;;;;8.73;5.00;;;;;;;;;;5066805;28;20119;-68
2023/12/28 08:59:09;;;;;;;8.52;5.70;;;;;;;;;;5069084;28;20063;-72
2023/12/28 09:01:34;;;;;;;10.10;5.25;;;;;;;;;;5059638;28;20048;-70
2023/12/28 09:03:59;;;;;;;9.15;5.72;;;;;;;;;;5049267;28;20039;-72
2023/12/28 09:06:25;;;;;;;9.25;5.63;;;;;;;;;;5068928;28;20044;-69
2023/12/28 09:08:50;;;;;;;8.52;5.47;;;;;;;;;;5067355;28;20570;-68
2023/12/28 09:11:16;;;;;;;8.20;5.50;;;;;;;;;;5049883;28;20131;-69
2023/12/28 09:13:41;;;;;;;9.80;5.78;;;;;;;;;;5068978;28;20033;-69
2023/12/28 09:16:10;;;;;;;8.25;5.00;;;;;;;;;;5039730;28;20043;-70
2023/12/28 09:18:37;;;;;;;9.07;5.57;;;;;;;;;;5050524;28;20530;-69
2023/12/28 09:21:03;;;;;;;10.70;5.93;;;;;;;;;;5051539;28;20040;-69
2023/12/28 09:23:28;;;;;;;9.25;5.72;;;;;;;;;;5068315;28;20048;-69
2023/12/28 09:25:53;;;;;;;8.73;5.50;;;;;;;;;;5049300;28;20522;-69
2023/12/28 09:28:19;;;;;;;8.52;5.38;;;;;;;;;;5042222;28;20032;-70
2023/12/28 09:30:45;;;;;;;9.48;5.68;;;;;;;;;;5049079;28;20068;-70
2023/12/28 09:33:11;;;;;;;8.90;5.90;;;;;;;;;;5047254;28;20095;-71
2023/12/28 09:35:37;;;;;;;8.68;5.25;;;;;;;;;;5048434;28;20040;-70
2023/12/28 09:38:02;;;;;;;9.52;5.80;;;;;;;;;;5050990;28;20025;-70
2023/12/28 09:40:27;;;;;;;9.60;5.75;;;;;;;;;;5048491;28;20047;-68
2023/12/28 09:43:11;;;;;;;9.77;5.53;;;;;;;;;;5043978;28;20029;-68
2023/12/28 09:45:37;;;;;;;9.35;5.35;;;;;;;;;;5060708;28;20039;-68
2023/12/28 09:48:04;;;;;;;8.20;5.30;;;;;;;;;;5064732;28;20029;-68
2023/12/28 09:50:29;;;;;;;9.20;5.28;;;;;;;;;;5067158;28;20039;-69
2023/12/28 09:52:55;;;;;;;9.13;5.28;;;;;;;;;;5049235;28;20037;-69
2023/12/28 09:55:20;;;;;;;8.93;5.90;;;;;;;;;;5064774;28;20032;-70
2023/12/28 09:57:45;;;;;;;10.07;5.80;;;;;;;;;;5046986;28;20102;-70
2023/12/28 10:00:11;;;;;;;11.95;5.35;;;;;;;;;;5050018;28;20530;-71
2023/12/28 10:02:37;;;;;;;12.85;5.65;;;;;;;;;;5050382;28;20048;-69
2023/12/28 10:05:04;;;;;;;7.90;5.43;;;;;;;;;;5046327;28;20051;-69
2023/12/28 10:07:31;;;;;;;8.60;5.38;;;;;;;;;;5054719;28;20037;-69
2023/12/28 10:09:56;;;;;;;7.85;5.15;;;;;;;;;;5066241;28;20068;-69
2023/12/28 10:12:21;;;;;;;10.43;6.18;;;;;;;;;;5060072;28;20078;-69
2023/12/28 10:14:46;;;;;;;8.68;5.10;;;;;;;;;;5058892;28;20114;-69
2023/12/28 10:17:12;;;;;;;9.05;5.32;;;;;;;;;;5050548;28;20039;-70
2023/12/28 10:19:37;;;;;;;8.15;5.35;;;;;;;;;;5066950;28;20043;-69
2023/12/28 10:22:03;;;;;;;10.85;5.93;;;;;;;;;;5051520;28;20071;-68
2023/12/28 10:24:28;;;;;;;8.60;4.80;;;;;;;;;;5047956;28;20052;-69
2023/12/28 10:26:55;;;;;;;7.20;5.32;;;;;;;;;;5051442;28;20119;-68
2023/12/28 10:29:20;;;;;;;9.10;5.05;;;;;;;;;;5062298;28;20032;-69
2023/12/28 10:31:49;;;;;;;7.75;4.78;;;;;;;;;;5049485;28;20110;-69
2023/12/28 10:34:14;;;;;;;6.80;5.00;;;;;;;;;;5050088;28;20120;-68
2023/12/28 10:36:40;;;;;;;7.70;5.32;;;;;;;;;;5050544;28;20426;-69
2023/12/28 10:39:05;;;;;;;8.18;5.10;;;;;;;;;;5046229;28;20567;-68
2023/12/28 10:41:30;;;;;;;7.55;5.20;;;;;;;;;;5061925;28;20028;-69
2023/12/28 10:44:02;;;;;;;7.32;5.20;;;;;;;;;;5048232;28;20859;-69
2023/12/28 10:46:28;;;;;;;8.50;6.03;;;;;;;;;;5057754;28;20056;-69
2023/12/28 10:49:14;;;;;;;6.85;5.18;;;;;;;;;;5049332;28;20565;-69
2023/12/28 10:51:40;;;;;;;8.60;5.57;;;;;;;;;;5066198;28;20106;-69
2023/12/28 10:54:08;;;;;;;7.50;5.43;;;;;;;;;;5058986;28;20013;-68
2023/12/28 10:56:41;;;;;;;7.30;5.55;;;;;;;;;;5051115;28;20129;-69
2023/12/28 10:59:16;;;;;;;6.93;5.07;;;;;;;;;;5070946;28;20024;-68
2023/12/28 11:01:42;;;;;;;7.75;4.85;;;;;;;;;;5051253;28;20859;-71
2023/12/28 11:04:14;;;;;;;7.55;5.45;;;;;;;;;;5061622;28;20261;-69
2023/12/28 11:06:39;;;;;;;8.35;5.45;;;;;;;;;;5053244;28;20114;-68
2023/12/28 11:09:05;;;;;;;7.45;5.43;;;;;;;;;;5061459;28;20052;-68
2023/12/28 11:11:30;;;;;;;8.00;4.63;;;;;;;;;;5051792;28;20094;-69
2023/12/28 11:13:56;;;;;;;7.35;5.05;;;;;;;;;;5071387;28;20044;-69
2023/12/28 11:16:21;;;;;;;7.15;5.18;;;;;;;;;;5065170;28;20119;-69
2023/12/28 11:18:47;;;;;;;8.68;5.63;;;;;;;;;;5053502;28;20036;-69
2023/12/28 11:21:12;;;;;;;7.68;4.85;;;;;;;;;;5052901;28;20040;-68
2023/12/28 11:23:38;;;;;;;7.53;5.00;;;;;;;;;;5051217;28;20062;-69
2023/12/28 11:26:03;;;;;;;7.78;5.25;;;;;;;;;;5062575;28;20136;-68
2023/12/28 11:28:29;;;;;;;6.80;5.07;;;;;;;;;;5051849;28;20057;-69
2023/12/28 11:30:54;;;;;;;40.78;8.15;;;;;;;;;;5046275;28;20036;-68
2023/12/28 11:33:19;;;;;;;16.73;6.22;;;;;;;;;;5066614;28;20405;-69
2023/12/28 11:35:47;;;;;;;19.08;10.38;;;;;;;;;;5067305;28;20042;-69
2023/12/28 11:38:12;;;;;;;13.18;5.90;;;;;;;;;;5052372;28;20129;-68
2023/12/28 11:40:42;;;;;;;13.15;6.68;;;;;;;;;;5017417;28;95175;-68
2023/12/28 11:43:14;;;;;;;13.65;5.82;;;;;;;;;;5047967;28;20060;-69
2023/12/28 11:45:41;;;;;;;9.23;6.07;;;;;;;;;;5044056;28;20030;-69
2023/12/28 11:48:06;;;;;;;12.13;6.53;;;;;;;;;;5032741;28;20037;-68
2023/12/28 11:50:31;;;;;;;10.20;6.38;;;;;;;;;;5047560;28;20135;-70
2023/12/28 11:52:57;;;;;;;11.73;6.60;;;;;;;;;;5040794;28;20774;-70
2023/12/28 11:55:23;;;;;;;11.05;5.90;;;;;;;;;;5045703;28;20037;-69
2023/12/28 11:57:48;;;;;;;9.40;5.78;;;;;;;;;;5031726;28;20042;-68
2023/12/28 12:00:14;;;;;;;10.90;6.53;;;;;;;;;;5050171;28;20033;-73
2023/12/28 12:02:43;;;;;;;10.30;5.82;;;;;;;;;;5041812;28;20032;-67
2023/12/28 12:05:08;;;;;;;9.27;6.55;;;;;;;;;;5055672;28;20532;-68
2023/12/28 12:07:33;;;;;;;13.02;6.38;;;;;;;;;;5048769;28;20040;-68
2023/12/28 12:09:59;;;;;;;13.75;6.50;;;;;;;;;;5060408;28;20033;-68
2023/12/28 12:12:24;;;;;;;11.27;6.25;;;;;;;;;;5059695;28;20041;-67
2023/12/28 12:14:49;;;;;;;8.75;5.60;;;;;;;;;;5052123;28;20116;-75
2023/12/28 12:17:16;;;;;;;13.20;6.45;;;;;;;;;;5049659;28;20041;-69
2023/12/28 12:19:41;;;;;;;8.98;6.18;;;;;;;;;;5054407;28;20041;-68
2023/12/28 12:22:06;;;;;;;9.90;6.32;;;;;;;;;;5051569;28;20043;-68
2023/12/28 12:24:32;;;;;;;9.38;6.05;;;;;;;;;;5051914;28;20028;-67
2023/12/28 12:26:57;;;;;;;9.25;6.05;;;;;;;;;;5046088;28;20888;-69
2023/12/28 12:29:22;;;;;;;9.85;5.88;;;;;;;;;;5043695;28;20045;-68
2023/12/28 12:31:48;;;;;;;9.55;6.03;;;;;;;;;;5049593;28;20040;-68
2023/12/28 12:34:16;;;;;;;8.77;6.15;;;;;;;;;;5066288;28;20063;-69
2023/12/28 12:36:42;;;;;;;8.93;5.70;;;;;;;;;;5043187;28;20060;-70
2023/12/28 12:39:08;;;;;;;10.60;6.28;;;;;;;;;;5048315;28;20064;-69
2023/12/28 12:41:33;;;;;;;9.80;5.97;;;;;;;;;;5050843;28;20028;-69
2023/12/28 12:43:59;;;;;;;8.38;5.80;;;;;;;;;;5054359;28;20029;-69
2023/12/28 12:46:24;;;;;;;10.40;5.90;;;;;;;;;;5051598;28;20048;-69
2023/12/28 12:48:59;;;;;;;9.75;5.93;;;;;;;;;;5042108;28;20036;-70
2023/12/28 12:51:25;;;;;;;10.52;5.35;;;;;;;;;;5038991;28;20060;-69
2023/12/28 12:53:50;;;;;;;9.10;5.95;;;;;;;;;;5048862;28;20067;-69
2023/12/28 12:56:17;;;;;;;9.55;5.82;;;;;;;;;;5049456;28;20033;-70
2023/12/28 12:58:43;;;;;;;9.02;6.00;;;;;;;;;;5049275;28;20644;-70
2023/12/28 13:01:11;;;;;;;8.88;5.82;;;;;;;;;;5052939;28;20036;-70
2023/12/28 13:03:38;;;;;;;7.95;5.72;;;;;;;;;;5050354;28;20122;-70
2023/12/28 13:06:03;;;;;;;6.80;5.03;;;;;;;;;;5049255;28;20040;-71
2023/12/28 13:08:29;;;;;;;8.75;6.07;;;;;;;;;;5057852;28;20430;-70
2023/12/28 13:10:54;;;;;;;8.23;5.95;;;;;;;;;;5056786;28;20026;-70
2023/12/28 13:13:19;;;;;;;7.55;5.40;;;;;;;;;;5070606;28;20419;-69
2023/12/28 13:15:45;;;;;;;9.07;6.15;;;;;;;;;;5041153;28;20166;-70
2023/12/28 13:18:10;;;;;;;8.18;5.95;;;;;;;;;;5056520;28;20119;-69
2023/12/28 13:20:35;;;;;;;9.32;5.90;;;;;;;;;;5062374;28;20040;-69
2023/12/28 13:23:01;;;;;;;8.07;5.53;;;;;;;;;;5047042;28;20037;-70
2023/12/28 13:25:27;;;;;;;8.73;5.25;;;;;;;;;;5047453;28;20128;-70
2023/12/28 13:27:52;;;;;;;7.85;5.65;;;;;;;;;;5056883;28;20028;-69
2023/12/28 13:30:17;;;;;;;9.80;5.78;;;;;;;;;;5061082;28;20471;-70
2023/12/28 13:32:43;;;;;;;7.75;5.60;;;;;;;;;;5049417;28;20067;-70
2023/12/28 13:35:08;;;;;;;8.82;5.65;;;;;;;;;;5051818;28;20037;-69
2023/12/28 13:37:33;;;;;;;8.70;5.45;;;;;;;;;;5052541;28;20033;-70
2023/12/28 13:39:59;;;;;;;9.60;6.05;;;;;;;;;;5051355;28;20051;-70
2023/12/28 13:42:24;;;;;;;8.20;5.65;;;;;;;;;;5055287;28;20060;-70
2023/12/28 13:44:49;;;;;;;7.65;5.20;;;;;;;;;;5051115;28;20029;-70
2023/12/28 13:47:15;;;;;;;8.20;5.40;;;;;;;;;;5056011;28;20573;-70
2023/12/28 13:49:40;;;;;;;7.47;5.00;;;;;;;;;;5051079;28;20037;-70
2023/12/28 13:52:05;;;;;;;8.25;5.53;;;;;;;;;;5058476;28;20041;-70
2023/12/28 13:54:31;;;;;;;7.88;6.22;;;;;;;;;;5056198;28;20048;-70
2023/12/28 13:56:57;;;;;;;8.27;5.78;;;;;;;;;;5054653;28;20452;-70
2023/12/28 13:59:22;;;;;;;7.80;5.32;;;;;;;;;;5049598;28;20041;-70
2023/12/28 14:01:48;;;;;;;8.38;5.68;;;;;;;;;;5058094;28;20072;-70
2023/12/28 14:04:13;;;;;;;7.97;5.60;;;;;;;;;;5056965;28;20040;-70
2023/12/28 14:06:38;;;;;;;7.00;5.38;;;;;;;;;;5057156;28;20083;-71
2023/12/28 14:09:04;;;;;;;9.18;6.00;;;;;;;;;;5049500;28;20055;-71
2023/12/28 14:11:29;;;;;;;8.52;5.80;;;;;;;;;;5047977;28;20511;-71
2023/12/28 14:13:54;;;;;;;8.68;5.57;;;;;;;;;;5051744;28;20044;-70
2023/12/28 14:16:19;;;;;;;9.20;5.88;;;;;;;;;;5044757;28;20056;-70
2023/12/28 14:18:46;;;;;;;8.10;5.65;;;;;;;;;;5050116;28;20037;-71
2023/12/28 14:21:14;;;;;;;7.68;5.75;;;;;;;;;;5058395;28;20137;-70
2023/12/28 14:23:40;;;;;;;7.72;5.50;;;;;;;;;;5050054;28;20025;-70
2023/12/28 14:26:09;;;;;;;9.02;5.65;;;;;;;;;;5045874;28;20375;-71
2023/12/28 14:28:36;;;;;;;8.50;5.93;;;;;;;;;;5067642;28;20037;-70
2023/12/28 14:31:01;;;;;;;8.98;6.00;;;;;;;;;;5055575;28;20099;-71
2023/12/28 14:33:27;;;;;;;8.65;6.00;;;;;;;;;;5041931;28;20058;-70